Capitol Logistics 248


KPVD
Theodore Francis Green State Airport
Providence, Rhode Island, US
KMIA
Miami International Airport
Miami, Florida, US

Route Details

Aircraft Information
Primary: Boeing 767-300BDSF
Backup: Not Available
Route Data
Distance: 1351nm
Sched. Duration: 3h 14m
Avg. Duration: 2h 79m (-36m)
Times Flown: 4
Recm'd Route: JUMPR RIFLE J174 SWL CEBEE WETRO DIW AR22 JORAY HILEY7
Planned Altitude: 36,000ft
Origin Wx: KPVD 191751Z 28010KT 10SM FEW040 BKN100 BKN300 05/M06 A2995 RMK AO2 SLP143 T00501056 10050 21017 58023
Dest. Wx: KMIA 191753Z 07012KT 10SM FEW044 FEW250 23/12 A3028 RMK AO2 SLP255 T02330117 10239 20150 58012
Notes:

Financial History
Total Freight: 342,943lbs
Average Load: 85,736lbs/flt
Fuel Used: 119,364lbs
Avg. Fuel Used: 29,841lbs/flt
Fuel Expense: $113,396
Avg. Fuel Expense: $28,349
Avg. Fuel Cost: $0.95/lbs
Total Gross Income: $483,005
Pilot Pay: $806
Total Expenses: $52,373
Total Revenue: $314,606
Average Revenue: $120,751.25